Time;durP1;ratioP1;P1;durP2;ratioP2;P2;SDS_P1;SDS_P2;PMS_P1;PMS_P2;Temp;Humidity;BMP_temperature;BMP_pressure;BME280_temperature;BME280_humidity;BME280_pressure;Samples;Min_cycle;Max_cycle;Signal;HPM_P1;HPM_P2
2021/04/04 00:00:18;;;;;;;7.80;4.75;;;;;;;-2.68;70.98;102439.78;5046043;28;20043;-46
2021/04/04 00:02:45;;;;;;;2.80;2.20;;;;;;;-2.64;69.04;102436.78;5065970;28;20043;-46
2021/04/04 00:05:12;;;;;;;6.57;2.90;;;;;;;-2.77;70.97;102436.88;5064314;28;20032;-46
2021/04/04 00:07:39;;;;;;;5.70;2.88;;;;;;;-2.82;71.37;102436.44;5062958;28;20040;-46
2021/04/04 00:10:07;;;;;;;4.60;3.05;;;;;;;-2.68;69.89;102439.78;5062451;28;20024;-46
2021/04/04 00:12:32;;;;;;;5.90;2.90;;;;;;;-2.97;73.69;102439.41;5054964;28;20227;-49
2021/04/04 00:14:58;;;;;;;6.18;2.45;;;;;;;-2.86;71.85;102440.25;5059311;28;20486;-47
2021/04/04 00:17:24;;;;;;;4.10;2.55;;;;;;;-3.00;72.69;102440.47;5059442;28;20033;-46
2021/04/04 00:19:50;;;;;;;3.45;2.40;;;;;;;-2.91;71.86;102442.38;5061867;28;20027;-46
2021/04/04 00:22:15;;;;;;;4.45;2.50;;;;;;;-2.99;72.76;102442.13;5060663;28;20032;-46
2021/04/04 00:24:41;;;;;;;4.10;2.30;;;;;;;-3.00;72.43;102440.47;5063517;28;20385;-46
2021/04/04 00:27:07;;;;;;;4.85;2.45;;;;;;;-3.01;71.54;102443.22;5050622;28;20036;-46
2021/04/04 00:29:32;;;;;;;6.22;2.22;;;;;;;-3.07;72.20;102445.34;5064610;28;20024;-49
2021/04/04 00:31:58;;;;;;;8.23;2.45;;;;;;;-3.42;77.31;102439.31;5063429;28;20494;-46
2021/04/04 00:34:23;;;;;;;7.32;2.80;;;;;;;-3.26;74.09;102431.13;5066229;28;20122;-46
2021/04/04 00:36:50;;;;;;;5.18;2.90;;;;;;;-3.23;73.87;102429.13;5064080;28;20108;-47
2021/04/04 00:39:16;;;;;;;4.88;2.15;;;;;;;-3.20;73.75;102439.38;5065393;28;20021;-48
2021/04/04 00:41:42;;;;;;;5.18;2.40;;;;;;;-3.12;71.92;102444.03;5057216;28;20053;-47
2021/04/04 00:44:09;;;;;;;3.35;2.40;;;;;;;-3.19;72.11;102440.22;5064944;28;20028;-47
2021/04/04 00:46:35;;;;;;;4.32;2.58;;;;;;;-3.27;73.58;102442.56;5065878;28;20035;-47
2021/04/04 00:49:00;;;;;;;3.65;2.38;;;;;;;-3.29;73.21;102441.84;5062773;28;20501;-48
2021/04/04 00:51:28;;;;;;;5.65;2.78;;;;;;;-3.30;72.83;102438.41;5063533;28;20516;-46
2021/04/04 00:53:53;;;;;;;3.50;2.67;;;;;;;-3.34;73.77;102447.44;5063406;28;20025;-48
2021/04/04 00:56:19;;;;;;;6.20;2.80;;;;;;;-3.27;72.65;102434.69;5059253;28;20474;-46
2021/04/04 00:58:46;;;;;;;4.40;2.15;;;;;;;-3.17;70.58;102433.06;5068227;28;20504;-48
2021/04/04 01:01:12;;;;;;;5.38;2.90;;;;;;;-3.12;71.23;102436.16;5049425;28;20029;-46
2021/04/04 01:03:37;;;;;;;4.72;2.70;;;;;;;-3.09;70.29;102435.91;5066479;28;20537;-46
2021/04/04 01:06:06;;;;;;;5.60;3.13;;;;;;;-3.21;72.91;102436.88;5060359;28;20036;-46
2021/04/04 01:08:35;;;;;;;6.95;4.32;;;;;;;-3.19;72.07;102434.97;5066904;28;20029;-47
2021/04/04 01:11:02;;;;;;;7.32;4.00;;;;;;;-3.24;71.82;102435.31;5067196;28;20028;-47
2021/04/04 01:13:52;;;;;;;7.05;3.80;;;;;;;-3.37;73.83;102445.06;5064880;28;20047;-46
2021/04/04 01:16:30;;;;;;;7.63;3.80;;;;;;;-3.43;73.77;102443.72;5061823;28;20803;-47
2021/04/04 01:19:41;;;;;;;8.32;5.35;;;;;;;-3.44;72.80;102435.97;5058910;28;20070;-47
2021/04/04 01:22:32;;;;;;;9.40;4.53;;;;;;;-3.52;74.21;102438.34;5023465;28;20044;-46
2021/04/04 01:25:17;;;;;;;7.68;4.32;;;;;;;-3.47;72.61;102438.84;5070477;28;20107;-47
2021/04/04 01:27:52;;;;;;;7.63;4.10;;;;;;;-3.48;73.00;102440.63;5067352;28;20107;-46
2021/04/04 01:30:21;;;;;;;6.32;4.60;;;;;;;-3.54;74.66;102429.78;5065626;28;20079;-48
2021/04/04 01:32:49;;;;;;;10.85;4.07;;;;;;;-3.54;73.97;102435.00;5065860;28;20078;-46
2021/04/04 01:35:18;;;;;;;7.75;4.28;;;;;;;-3.54;72.19;102445.50;5066465;28;20052;-49
2021/04/04 01:37:47;;;;;;;11.10;6.10;;;;;;;-3.59;73.53;102431.88;5067623;28;20039;-46
2021/04/04 01:40:17;;;;;;;7.47;4.05;;;;;;;-3.66;74.26;102434.13;5062410;28;20031;-48
2021/04/04 01:42:44;;;;;;;7.25;3.50;;;;;;;-3.64;73.59;102432.22;5068761;28;20074;-47
2021/04/04 01:45:10;;;;;;;7.93;5.03;;;;;;;-3.64;73.17;102429.63;5070077;28;20048;-49
2021/04/04 01:47:37;;;;;;;5.65;4.35;;;;;;;-3.67;73.26;102422.81;5059899;28;20030;-46
2021/04/04 01:50:09;;;;;;;8.77;4.05;;;;;;;-3.69;73.57;102423.88;5062947;28;20052;-48
2021/04/04 01:52:36;;;;;;;6.20;3.78;;;;;;;-3.72;73.45;102418.88;5063650;28;20029;-46
2021/04/04 01:55:04;;;;;;;8.23;4.20;;;;;;;-3.75;74.29;102424.34;5057840;28;20055;-46
2021/04/04 01:57:30;;;;;;;7.80;4.18;;;;;;;-3.71;73.48;102417.94;5045583;28;20020;-47
2021/04/04 01:59:56;;;;;;;6.65;4.03;;;;;;;-3.71;73.18;102413.53;5057280;28;20075;-47
2021/04/04 02:02:22;;;;;;;7.97;4.22;;;;;;;-3.76;74.58;102409.59;5067359;28;20077;-45
2021/04/04 02:04:51;;;;;;;6.93;3.90;;;;;;;-3.79;74.05;102412.41;5070838;28;20024;-50
2021/04/04 02:07:17;;;;;;;5.45;3.97;;;;;;;-3.79;73.24;102407.16;5067441;28;20082;-47
2021/04/04 02:09:45;;;;;;;9.77;4.38;;;;;;;-3.80;73.30;102408.13;5071165;28;20118;-46
2021/04/04 02:12:12;;;;;;;5.57;3.90;;;;;;;-3.76;72.33;102397.31;5060221;28;20082;-47
2021/04/04 02:14:41;;;;;;;7.13;4.40;;;;;;;-3.73;71.88;102406.75;5066315;28;20024;-48
2021/04/04 02:17:07;;;;;;;6.65;4.38;;;;;;;-3.90;76.36;102407.97;5062373;28;20035;-49
2021/04/04 02:19:33;;;;;;;6.70;4.60;;;;;;;-3.87;74.91;102396.44;5068494;28;20598;-46
2021/04/04 02:22:00;;;;;;;10.73;4.13;;;;;;;-3.81;73.29;102401.22;5065244;28;20024;-48
2021/04/04 02:24:28;;;;;;;6.63;4.28;;;;;;;-3.93;74.42;102392.50;5066473;28;20024;-45
2021/04/04 02:26:54;;;;;;;11.30;4.30;;;;;;;-3.92;74.47;102388.09;5062522;28;20036;-47
2021/04/04 02:29:20;;;;;;;8.77;4.85;;;;;;;-3.99;74.72;102383.28;5057315;28;20032;-47
2021/04/04 02:31:56;;;;;;;7.70;4.30;;;;;;;-4.05;75.15;102386.38;5063796;28;20033;-47
2021/04/04 02:34:26;;;;;;;9.98;5.15;;;;;;;-4.10;75.57;102378.03;5062420;28;20028;-47
2021/04/04 02:36:53;;;;;;;6.60;4.30;;;;;;;-4.09;75.42;102382.31;5048093;28;20486;-46
2021/04/04 02:39:25;;;;;;;9.45;4.80;;;;;;;-4.10;75.28;102382.44;5058765;28;21131;-46
2021/04/04 02:41:52;;;;;;;7.43;4.28;;;;;;;-4.09;74.37;102384.94;5063677;28;20031;-46
2021/04/04 02:44:18;;;;;;;8.27;4.53;;;;;;;-4.10;74.34;102380.66;5065824;28;20136;-46
2021/04/04 02:46:52;;;;;;;8.20;4.93;;;;;;;-4.15;74.84;102390.59;5065293;28;20066;-47
2021/04/04 02:49:20;;;;;;;7.60;4.82;;;;;;;-4.24;76.69;102388.66;5054935;28;22210;-46
2021/04/04 02:51:52;;;;;;;7.55;5.00;;;;;;;-4.34;82.52;102392.88;5067922;28;20754;-46
2021/04/04 02:54:24;;;;;;;7.85;5.22;;;;;;;-4.34;81.15;102400.75;5060058;28;20028;-47
2021/04/04 02:56:50;;;;;;;5.97;4.32;;;;;;;-4.24;82.03;102396.53;5059662;28;20081;-46
2021/04/04 02:59:43;;;;;;;9.95;5.18;;;;;;;-4.18;79.47;102388.22;5069051;28;20032;-46
2021/04/04 03:02:12;;;;;;;8.23;4.50;;;;;;;-4.11;77.66;102386.00;5049755;28;20051;-46
2021/04/04 03:04:38;;;;;;;7.82;4.45;;;;;;;-4.14;77.35;102389.66;5063040;28;20032;-47
2021/04/04 03:07:11;;;;;;;9.10;5.00;;;;;;;-4.23;78.26;102382.50;5066267;28;20453;-46
2021/04/04 03:09:40;;;;;;;6.32;4.53;;;;;;;-4.29;78.60;102386.41;5066431;28;20500;-46
2021/04/04 03:12:07;;;;;;;7.70;4.85;;;;;;;-4.34;78.90;102385.03;5041349;28;20029;-46
2021/04/04 03:14:34;;;;;;;5.95;4.20;;;;;;;-4.30;77.79;102389.13;5066711;28;20031;-46
2021/04/04 03:17:00;;;;;;;7.68;3.65;;;;;;;-4.31;77.16;102392.66;5071057;28;20367;-46
2021/04/04 03:19:26;;;;;;;6.50;4.03;;;;;;;-4.41;78.33;102383.81;5066257;28;20112;-46
2021/04/04 03:21:54;;;;;;;8.75;4.32;;;;;;;-4.36;76.36;102384.31;5062603;28;20079;-46
2021/04/04 03:24:23;;;;;;;7.82;4.47;;;;;;;-4.36;76.37;102382.53;5063389;28;20059;-46
2021/04/04 03:26:49;;;;;;;8.90;4.53;;;;;;;-4.31;75.73;102376.97;5065269;28;20802;-47
2021/04/04 03:29:15;;;;;;;8.98;5.28;;;;;;;-4.30;76.20;102371.66;5058375;28;20036;-46
2021/04/04 03:31:41;;;;;;;9.00;5.05;;;;;;;-4.41;79.06;102378.59;5078788;22;20048;-47
2021/04/04 03:34:08;;;;;;;12.68;5.70;;;;;;;-4.54;82.07;102380.41;5089043;28;20038;-45
2021/04/04 03:36:34;;;;;;;9.70;5.00;;;;;;;-4.49;79.57;102367.81;5089730;28;20023;-45
2021/04/04 03:39:01;;;;;;;7.20;5.07;;;;;;;-4.47;78.43;102369.41;5086318;28;20035;-45
2021/04/04 03:41:28;;;;;;;7.75;4.82;;;;;;;-4.52;80.62;102368.06;5083538;28;20097;-45
2021/04/04 03:43:55;;;;;;;7.40;4.35;;;;;;;-4.66;82.32;102367.28;5066084;28;20020;-44
2021/04/04 03:46:26;;;;;;;8.43;4.70;;;;;;;-4.63;81.88;102372.28;5068574;28;20107;-44
2021/04/04 03:48:54;;;;;;;10.20;4.22;;;;;;;-4.61;80.65;102372.19;5066329;28;20035;-44
2021/04/04 03:51:24;;;;;;;5.13;3.80;;;;;;;-4.58;79.10;102372.78;5067209;28;20166;-44
2021/04/04 03:53:50;;;;;;;8.50;4.30;;;;;;;-4.64;79.62;102368.00;5066610;28;20048;-44
2021/04/04 03:56:22;;;;;;;6.65;4.03;;;;;;;-4.68;79.17;102369.16;5066308;28;20044;-45
2021/04/04 03:58:50;;;;;;;8.80;4.32;;;;;;;-4.65;78.18;102368.94;5069990;28;20079;-45
2021/04/04 04:01:20;;;;;;;9.02;3.80;;;;;;;-4.63;77.50;102363.59;5065456;28;20031;-46
2021/04/04 04:03:47;;;;;;;7.68;4.18;;;;;;;-4.66;78.35;102366.44;5069261;28;20067;-44
2021/04/04 04:06:13;;;;;;;7.47;4.68;;;;;;;-4.80;80.06;102359.56;5065230;28;20031;-45
2021/04/04 04:08:40;;;;;;;10.70;5.00;;;;;;;-4.81;80.91;102365.75;5064970;28;20039;-45
2021/04/04 04:11:10;;;;;;;8.38;4.70;;;;;;;-4.80;80.51;102354.34;5071663;28;21493;-44
2021/04/04 04:13:37;;;;;;;7.43;4.07;;;;;;;-4.73;79.33;102352.13;5070220;28;20025;-46
2021/04/04 04:16:04;;;;;;;8.30;4.43;;;;;;;-4.74;78.87;102351.28;5068851;28;20020;-44
2021/04/04 04:18:30;;;;;;;9.40;4.50;;;;;;;-4.73;78.49;102339.03;5068431;28;20065;-44
2021/04/04 04:20:56;;;;;;;10.23;5.05;;;;;;;-4.75;79.63;102349.63;5069211;28;20082;-44
2021/04/04 04:23:23;;;;;;;10.30;5.60;;;;;;;-4.86;83.49;102354.75;5072023;28;20437;-46
2021/04/04 04:25:50;;;;;;;7.90;4.40;;;;;;;-4.90;84.34;102341.06;5070724;28;20024;-45
2021/04/04 04:28:18;;;;;;;7.05;4.75;;;;;;;-4.83;83.56;102349.34;5072914;28;20028;-46
2021/04/04 04:30:45;;;;;;;8.88;5.38;;;;;;;-4.92;88.04;102355.19;5052075;28;20040;-44
2021/04/04 04:33:15;;;;;;;9.57;5.03;;;;;;;-4.87;85.95;102348.69;5072557;28;20036;-44
2021/04/04 04:35:44;;;;;;;9.48;4.82;;;;;;;-4.88;86.14;102348.81;5071330;28;20048;-45
2021/04/04 04:38:10;;;;;;;8.35;5.43;;;;;;;-4.77;84.03;102351.50;5075092;28;20031;-44
2021/04/04 04:40:36;;;;;;;8.98;4.50;;;;;;;-4.70;81.54;102349.28;5074403;28;20633;-44
2021/04/04 04:43:05;;;;;;;7.53;4.53;;;;;;;-4.67;80.96;102347.31;5072795;28;20040;-44
2021/04/04 04:45:37;;;;;;;9.90;5.68;;;;;;;-4.66;81.07;102343.75;5071528;28;20401;-44
2021/04/04 04:48:03;;;;;;;9.45;5.07;;;;;;;-4.60;78.99;102340.69;5073251;28;20016;-45
2021/04/04 04:50:29;;;;;;;8.30;5.20;;;;;;;-4.54;78.82;102331.53;5073419;28;20137;-44
2021/04/04 04:52:58;;;;;;;8.48;5.32;;;;;;;-4.47;79.23;102329.34;5071674;28;20035;-47
2021/04/04 04:55:25;;;;;;;8.32;5.28;;;;;;;-4.38;78.89;102323.41;5073991;28;20073;-45
2021/04/04 04:57:51;;;;;;;12.07;5.15;;;;;;;-4.23;76.82;102330.16;5072490;28;20688;-44
2021/04/04 05:00:18;;;;;;;8.15;5.15;;;;;;;-4.12;76.64;102335.44;5074659;28;20016;-44
2021/04/04 05:02:45;;;;;;;8.88;5.40;;;;;;;-4.06;76.93;102328.91;5053797;28;20032;-45
2021/04/04 05:05:12;;;;;;;6.57;4.10;;;;;;;-4.12;79.62;102337.22;5072543;28;20029;-45
2021/04/04 05:07:39;;;;;;;6.78;4.80;;;;;;;-4.00;78.45;102333.66;5069456;28;20115;-44
2021/04/04 05:10:07;;;;;;;9.10;4.68;;;;;;;-3.85;77.73;102327.28;5073615;28;20027;-44
2021/04/04 05:12:35;;;;;;;8.82;4.72;;;;;;;-3.70;77.41;102330.53;5071740;28;20055;-45
2021/04/04 05:15:03;;;;;;;8.90;5.25;;;;;;;-3.52;77.63;102328.31;5073057;28;20028;-45
2021/04/04 05:17:35;;;;;;;8.63;4.55;;;;;;;-3.32;76.88;102324.97;5072809;28;20710;-45
2021/04/04 05:20:03;;;;;;;11.57;4.78;;;;;;;-3.05;75.17;102327.25;5073985;28;20027;-45
2021/04/04 05:22:28;;;;;;;7.43;4.70;;;;;;;-2.86;74.12;102318.75;5072984;28;20572;-44
2021/04/04 05:24:56;;;;;;;11.23;4.63;;;;;;;-2.70;73.82;102326.22;5073841;28;20032;-45
2021/04/04 05:27:22;;;;;;;7.40;4.20;;;;;;;-2.52;73.39;102324.72;5074835;28;20035;-44
2021/04/04 05:29:48;;;;;;;6.72;4.40;;;;;;;-2.34;72.87;102317.97;5074388;28;20497;-44
2021/04/04 05:32:14;;;;;;;7.90;4.25;;;;;;;-2.18;73.14;102322.81;5074494;28;20040;-45
2021/04/04 05:34:40;;;;;;;8.07;4.00;;;;;;;-2.04;72.62;102325.13;5072109;28;20115;-45
2021/04/04 05:37:08;;;;;;;7.47;4.35;;;;;;;-1.89;72.37;102313.34;5076177;28;20115;-45
2021/04/04 05:39:36;;;;;;;5.18;3.17;;;;;;;-1.85;75.18;102308.69;5070205;28;20019;-46
2021/04/04 05:42:04;;;;;;;4.43;3.17;;;;;;;-1.69;74.23;102298.53;5073262;28;20028;-45
2021/04/04 05:44:53;;;;;;;3.75;2.83;;;;;;;-1.41;74.86;102296.19;5071980;28;20046;-44
2021/04/04 05:47:41;;;;;;;6.32;3.08;;;;;;;-1.20;75.11;102299.59;5072446;28;20013;-46
2021/04/04 05:50:27;;;;;;;6.72;3.50;;;;;;;-0.62;73.28;102307.63;5071881;28;20042;-46
2021/04/04 05:53:09;;;;;;;5.57;2.63;;;;;;;0.35;68.69;102291.72;5072913;28;20056;-46
2021/04/04 05:55:48;;;;;;;3.97;2.38;;;;;;;1.00;66.58;102292.59;5072672;28;20052;-45
2021/04/04 05:58:25;;;;;;;5.93;2.70;;;;;;;1.23;65.60;102296.47;5071343;28;20136;-46
2021/04/04 06:00:56;;;;;;;4.50;2.65;;;;;;;1.40;65.15;102293.00;5070959;28;20500;-45
2021/04/04 06:03:52;;;;;;;5.22;2.97;;;;;;;0.85;67.04;102293.06;5071398;28;20024;-45
2021/04/04 06:06:38;;;;;;;6.43;2.92;;;;;;;0.37;69.10;102295.09;5073788;28;20077;-45
2021/04/04 06:09:25;;;;;;;5.25;2.97;;;;;;;-0.02;71.63;102289.88;5068815;28;20017;-45
2021/04/04 06:12:23;;;;;;;4.38;2.83;;;;;;;-0.08;72.69;102283.38;5070052;28;20032;-46
2021/04/04 06:15:13;;;;;;;3.22;2.50;;;;;;;-0.11;73.08;102282.81;5073160;28;20916;-46
2021/04/04 06:18:13;;;;;;;5.57;3.47;;;;;;;-0.08;73.55;102277.28;5070850;28;20044;-47
2021/04/04 06:20:51;;;;;;;6.07;2.70;;;;;;;0.12;72.96;102278.91;5071804;28;20032;-45
2021/04/04 06:23:20;;;;;;;6.95;3.80;;;;;;;0.24;73.77;102275.13;5069892;28;20028;-45
2021/04/04 06:25:53;;;;;;;4.55;2.75;;;;;;;0.67;71.99;102279.00;5069211;28;20063;-45
2021/04/04 06:28:49;;;;;;;7.07;2.60;;;;;;;0.95;71.61;102266.63;5073744;28;20525;-46
2021/04/04 06:31:33;;;;;;;4.10;2.53;;;;;;;0.74;71.78;102274.81;5071720;28;20048;-48
2021/04/04 06:34:19;;;;;;;4.43;2.97;;;;;;;0.84;71.13;102274.75;5072752;28;20039;-49
2021/04/04 06:37:03;;;;;;;6.32;4.03;;;;;;;1.04;70.91;102272.81;5069703;28;20021;-47
2021/04/04 06:40:01;;;;;;;5.13;3.35;;;;;;;1.13;71.40;102269.31;5070617;28;20021;-46
2021/04/04 06:42:48;;;;;;;5.57;2.60;;;;;;;1.43;70.37;102266.28;5068350;28;21003;-46
2021/04/04 06:45:59;;;;;;;5.78;2.65;;;;;;;1.78;66.69;102259.31;5070899;28;20024;-45
2021/04/04 06:48:46;;;;;;;5.88;3.13;;;;;;;2.20;66.15;102253.34;5068142;28;20048;-46
2021/04/04 06:51:33;;;;;;;7.72;3.50;;;;;;;2.43;65.11;102255.28;5071412;28;20036;-46
2021/04/04 06:54:16;;;;;;;4.32;2.67;;;;;;;2.73;63.84;102261.06;5071139;28;20089;-45
2021/04/04 06:57:12;;;;;;;5.38;2.83;;;;;;;2.92;63.85;102259.97;5068048;28;20040;-45
2021/04/04 06:59:57;;;;;;;5.20;3.30;;;;;;;2.95;63.71;102259.66;5068602;28;20031;-45
2021/04/04 07:02:29;;;;;;;3.65;3.05;;;;;;;3.21;61.07;102249.75;5070296;28;20071;-46
2021/04/04 07:04:59;;;;;;;3.97;2.42;;;;;;;3.39;60.35;102248.81;5070900;28;20032;-47
2021/04/04 07:07:48;;;;;;;3.83;2.20;;;;;;;3.47;60.56;102246.19;5070302;28;20691;-46
2021/04/04 07:10:51;;;;;;;4.30;3.05;;;;;;;3.64;60.35;102251.31;5036946;28;20052;-45
2021/04/04 07:13:34;;;;;;;4.65;2.90;;;;;;;3.64;61.22;102247.84;5067199;28;20027;-46
2021/04/04 07:16:17;;;;;;;6.95;3.53;;;;;;;4.06;58.99;102241.50;5068851;28;20028;-46
2021/04/04 07:19:03;;;;;;;3.13;2.03;;;;;;;4.44;56.36;102242.56;5074096;28;20027;-45
2021/04/04 07:22:12;;;;;;;2.03;1.50;;;;;;;4.82;53.65;102251.53;5077839;28;20031;-45
2021/04/04 07:25:19;;;;;;;5.78;1.98;;;;;;;5.11;53.11;102246.41;5054242;28;20035;-46
2021/04/04 07:28:00;;;;;;;4.72;1.50;;;;;;;5.33;50.80;102255.38;5077625;28;20063;-45
2021/04/04 07:30:35;;;;;;;3.47;1.85;;;;;;;5.33;48.48;102254.56;5055644;28;20550;-46
2021/04/04 07:33:27;;;;;;;1.58;1.23;;;;;;;5.63;48.61;102248.34;5072531;28;20024;-46
2021/04/04 07:35:55;;;;;;;3.78;2.05;;;;;;;5.63;47.84;102240.38;5046999;28;21258;-48
2021/04/04 07:38:37;;;;;;;2.08;1.70;;;;;;;5.67;47.16;102248.81;5068836;28;20063;-46
2021/04/04 07:41:10;;;;;;;1.88;1.13;;;;;;;5.73;46.72;102251.59;5066127;28;20108;-47
2021/04/04 07:44:01;;;;;;;3.17;1.55;;;;;;;5.86;46.69;102240.34;5067354;28;20012;-47
2021/04/04 07:46:55;;;;;;;2.15;1.67;;;;;;;6.19;47.68;102240.88;5072104;28;20054;-45
2021/04/04 07:49:40;;;;;;;2.60;1.52;;;;;;;6.21;46.20;102235.38;5073694;28;20024;-46
2021/04/04 07:52:14;;;;;;;3.42;1.42;;;;;;;6.21;46.03;102228.22;5064163;28;20050;-47
2021/04/04 07:54:55;;;;;;;2.53;1.65;;;;;;;6.22;46.18;102229.88;5069379;28;20047;-46
2021/04/04 07:57:35;;;;;;;4.45;1.77;;;;;;;6.35;46.07;102223.91;5072578;28;20588;-45
2021/04/04 08:00:07;;;;;;;4.13;1.50;;;;;;;6.41;45.67;102225.00;5070039;28;20595;-45
2021/04/04 08:02:54;;;;;;;4.10;2.55;;;;;;;6.44;45.66;102214.81;5053515;28;20038;-45
2021/04/04 08:05:25;;;;;;;8.43;3.88;;;;;;;6.67;45.78;102209.38;5072146;28;20058;-46
2021/04/04 08:07:57;;;;;;;1.40;1.30;;;;;;;6.95;45.42;102210.31;5072155;28;20024;-45
2021/04/04 08:10:30;;;;;;;4.40;1.60;;;;;;;7.01;45.74;102195.41;5076800;28;20115;-45
2021/04/04 08:13:20;;;;;;;5.13;1.65;;;;;;;7.00;45.60;102203.56;5072668;28;20079;-45
2021/04/04 08:15:57;;;;;;;3.55;1.83;;;;;;;7.30;45.33;102197.13;5072681;28;20053;-46
2021/04/04 08:18:24;;;;;;;4.93;1.95;;;;;;;7.33;45.49;102191.41;5068478;28;20027;-46
2021/04/04 08:20:52;;;;;;;2.10;1.30;;;;;;;7.61;44.75;102186.13;5071124;28;20032;-46
2021/04/04 08:23:29;;;;;;;3.65;2.53;;;;;;;7.68;44.47;102183.50;5070079;28;20023;-46
2021/04/04 08:26:06;;;;;;;3.05;1.77;;;;;;;7.82;44.05;102194.06;5071219;28;20048;-47
2021/04/04 08:28:50;;;;;;;3.22;1.92;;;;;;;7.67;43.98;102193.34;5071205;28;20035;-47
2021/04/04 08:31:32;;;;;;;3.05;1.45;;;;;;;7.52;43.00;102190.75;5068610;28;20028;-47
2021/04/04 08:34:06;;;;;;;2.67;1.05;;;;;;;7.46;43.17;102191.53;5069703;28;20119;-47
2021/04/04 08:36:36;;;;;;;3.17;1.70;;;;;;;7.42;42.91;102195.59;5076416;28;20031;-48
2021/04/04 08:39:02;;;;;;;1.75;1.35;;;;;;;7.28;43.41;102188.50;5073831;28;20055;-47
2021/04/04 08:41:32;;;;;;;2.30;1.38;;;;;;;7.45;42.20;102189.06;5065019;28;20058;-48
2021/04/04 08:44:01;;;;;;;3.53;1.63;;;;;;;7.64;42.45;102180.41;5067806;28;20660;-46
2021/04/04 08:46:39;;;;;;;3.90;1.73;;;;;;;7.81;42.84;102186.28;5061799;28;20110;-49
2021/04/04 08:49:05;;;;;;;2.40;1.40;;;;;;;7.82;41.72;102185.25;5065942;28;20048;-47
2021/04/04 08:51:37;;;;;;;1.92;1.05;;;;;;;8.03;42.38;102184.34;5071890;28;20131;-46
2021/04/04 08:54:06;;;;;;;2.72;1.40;;;;;;;7.83;42.14;102181.56;5071482;28;20076;-49
2021/04/04 08:56:33;;;;;;;3.38;1.40;;;;;;;8.37;42.34;102183.53;5070298;28;20156;-49
2021/04/04 08:59:02;;;;;;;5.50;1.80;;;;;;;8.34;42.01;102173.25;5064921;28;20111;-47
2021/04/04 09:01:31;;;;;;;3.58;2.10;;;;;;;8.13;41.02;102166.16;5070840;28;20055;-46
2021/04/04 09:03:59;;;;;;;5.53;1.40;;;;;;;8.10;42.18;102174.56;5066440;28;20028;-49
2021/04/04 09:06:34;;;;;;;4.05;1.85;;;;;;;8.33;41.54;102168.91;5063055;28;20096;-48
2021/04/04 09:08:59;;;;;;;2.13;1.60;;;;;;;8.73;41.46;102183.28;5068787;28;20039;-46
2021/04/04 09:11:26;;;;;;;2.03;1.30;;;;;;;8.60;40.27;102168.03;5071583;28;20622;-47
2021/04/04 09:13:58;;;;;;;3.35;1.23;;;;;;;8.46;39.62;102174.34;5065668;28;20553;-46
2021/04/04 09:16:24;;;;;;;3.95;1.67;;;;;;;8.31;40.56;102166.44;5065774;28;20592;-47
2021/04/04 09:18:52;;;;;;;2.63;1.35;;;;;;;8.43;40.75;102164.03;5076870;28;20031;-45
2021/04/04 09:21:23;;;;;;;2.25;1.30;;;;;;;8.67;39.61;102179.56;5076709;28;20024;-47
2021/04/04 09:23:52;;;;;;;3.33;1.58;;;;;;;9.02;40.38;102166.91;5075945;28;20027;-48
2021/04/04 09:26:21;;;;;;;1.65;1.35;;;;;;;8.84;39.78;102164.00;5074596;28;20020;-47
2021/04/04 09:28:49;;;;;;;2.35;1.13;;;;;;;9.02;40.03;102155.41;5070889;28;20498;-48
2021/04/04 09:31:32;;;;;;;5.15;1.83;;;;;;;9.41;39.51;102143.91;5071138;28;20036;-47
2021/04/04 09:34:07;;;;;;;4.25;1.10;;;;;;;9.42;39.21;102152.75;5072290;28;20121;-46
2021/04/04 09:36:51;;;;;;;4.25;1.50;;;;;;;9.17;39.58;102141.84;5074088;28;20609;-46
2021/04/04 09:39:29;;;;;;;2.50;1.38;;;;;;;9.61;38.68;102134.00;5073002;28;21010;-45
2021/04/04 09:41:57;;;;;;;2.22;1.15;;;;;;;9.97;38.64;102132.72;5069872;28;20505;-46
2021/04/04 09:44:33;;;;;;;5.85;1.52;;;;;;;9.60;37.77;102137.72;5074167;28;20111;-45
2021/04/04 09:47:01;;;;;;;5.00;1.40;;;;;;;9.27;38.00;102142.25;5071043;28;20800;-46
2021/04/04 09:49:36;;;;;;;3.47;1.40;;;;;;;9.49;37.17;102127.63;5067861;28;20291;-46
2021/04/04 09:52:24;;;;;;;3.40;1.67;;;;;;;9.49;36.76;102124.13;5066364;28;20036;-46
2021/04/04 09:55:00;;;;;;;2.42;1.38;;;;;;;9.87;37.25;102114.38;5053739;28;20044;-46
2021/04/04 09:57:26;;;;;;;4.47;1.83;;;;;;;9.54;37.97;102114.47;5069431;28;20025;-46
2021/04/04 09:59:52;;;;;;;3.13;1.67;;;;;;;9.70;37.16;102121.25;5068996;28;20038;-47
2021/04/04 10:02:37;;;;;;;4.07;1.65;;;;;;;10.16;37.45;102109.56;5068633;28;20084;-45
2021/04/04 10:05:03;;;;;;;3.00;1.50;;;;;;;10.10;37.03;102111.25;5070133;28;20074;-46
2021/04/04 10:07:30;;;;;;;4.20;2.30;;;;;;;9.45;38.34;102107.69;5070018;28;20077;-45
2021/04/04 10:09:57;;;;;;;3.67;1.63;;;;;;;9.85;37.69;102108.44;5071101;28;20046;-46
2021/04/04 10:12:23;;;;;;;2.35;1.50;;;;;;;9.84;37.74;102104.09;5069224;28;20034;-46
2021/04/04 10:15:03;;;;;;;5.07;1.70;;;;;;;10.19;37.22;102103.78;5071046;28;20762;-46
2021/04/04 10:17:29;;;;;;;4.63;1.58;;;;;;;10.93;36.65;102102.38;5077751;28;20027;-48
2021/04/04 10:19:57;;;;;;;4.15;1.98;;;;;;;10.41;36.41;102091.78;5071621;28;20020;-45
2021/04/04 10:22:23;;;;;;;1.98;1.30;;;;;;;11.17;36.01;102086.31;5064706;28;20039;-46
2021/04/04 10:24:49;;;;;;;3.42;1.40;;;;;;;10.36;36.82;102086.22;5069839;28;20032;-45
2021/04/04 10:27:26;;;;;;;2.85;1.58;;;;;;;10.39;35.93;102071.56;5070337;28;20482;-46
2021/04/04 10:30:12;;;;;;;2.47;1.77;;;;;;;10.59;36.77;102067.78;5066603;28;20421;-46
2021/04/04 10:32:48;;;;;;;5.03;1.70;;;;;;;11.20;36.42;102064.41;5071483;28;20024;-45
2021/04/04 10:35:35;;;;;;;2.58;1.73;;;;;;;11.56;35.92;102067.38;5073092;28;20445;-49
2021/04/04 10:38:06;;;;;;;5.35;1.98;;;;;;;11.13;35.72;102058.28;5072048;28;20082;-47
2021/04/04 10:40:45;;;;;;;4.57;1.80;;;;;;;11.36;35.89;102049.63;5076732;28;20024;-46
2021/04/04 10:43:12;;;;;;;4.90;1.90;;;;;;;11.09;36.37;102049.03;5075854;28;20035;-46
2021/04/04 10:46:09;;;;;;;6.35;2.65;;;;;;;11.38;35.69;102047.53;5073530;28;20484;-49
2021/04/04 10:48:40;;;;;;;4.72;2.20;;;;;;;10.73;36.46;102041.69;5070765;28;20069;-46
2021/04/04 10:51:07;;;;;;;7.10;4.03;;;;;;;11.64;36.71;102032.19;5072759;28;20028;-47
2021/04/04 10:53:33;;;;;;;4.57;2.80;;;;;;;10.41;37.88;102037.34;5069883;28;20032;-48
2021/04/04 10:56:00;;;;;;;8.35;2.78;;;;;;;10.23;38.13;102040.75;5072265;28;20042;-46
2021/04/04 10:58:27;;;;;;;6.65;2.40;;;;;;;11.23;37.50;102022.09;5067129;28;20020;-47
2021/04/04 11:00:57;;;;;;;5.35;2.40;;;;;;;11.52;36.97;102026.75;5067092;28;20039;-47
2021/04/04 11:03:24;;;;;;;7.13;2.45;;;;;;;10.75;37.21;102028.06;5075062;28;20036;-47
2021/04/04 11:05:50;;;;;;;5.07;2.75;;;;;;;11.04;37.19;102027.41;5078547;28;20031;-47
2021/04/04 11:08:19;;;;;;;5.05;2.70;;;;;;;10.46;37.92;102018.78;5074580;28;20035;-47
2021/04/04 11:10:46;;;;;;;7.90;3.28;;;;;;;9.92;38.73;102018.22;5065135;28;20052;-47
2021/04/04 11:13:17;;;;;;;5.18;2.83;;;;;;;11.02;37.57;102005.34;5049654;28;20115;-47
2021/04/04 11:15:50;;;;;;;5.00;2.90;;;;;;;11.22;37.81;102007.84;5071793;28;20086;-47
2021/04/04 11:18:22;;;;;;;4.75;2.60;;;;;;;10.64;38.02;101997.44;5067301;28;20048;-48
2021/04/04 11:20:53;;;;;;;7.78;2.90;;;;;;;11.22;37.33;102001.66;5073091;28;20098;-47
2021/04/04 11:23:20;;;;;;;5.78;2.90;;;;;;;11.49;37.13;101981.56;5075379;28;20572;-46
2021/04/04 11:25:45;;;;;;;7.82;2.88;;;;;;;12.23;36.15;101974.25;5069128;28;20036;-47
2021/04/04 11:28:16;;;;;;;9.63;3.15;;;;;;;10.86;37.43;101985.28;5076652;28;20027;-46
2021/04/04 11:30:42;;;;;;;6.75;3.08;;;;;;;11.41;36.94;101981.84;5075457;28;20413;-46
2021/04/04 11:33:17;;;;;;;10.57;3.47;;;;;;;12.02;35.52;101970.16;5074490;28;20043;-49
2021/04/04 11:36:01;;;;;;;7.93;2.78;;;;;;;12.73;35.45;101955.84;5071999;28;20028;-48
2021/04/04 11:38:32;;;;;;;7.88;3.08;;;;;;;13.08;34.73;101953.16;5068977;28;20028;-47
2021/04/04 11:41:13;;;;;;;7.22;2.45;;;;;;;13.34;34.27;101951.06;5076633;28;20027;-48
2021/04/04 11:43:39;;;;;;;9.55;3.05;;;;;;;13.33;34.21;101949.44;5066035;28;20087;-47
2021/04/04 11:46:05;;;;;;;5.70;2.88;;;;;;;13.38;33.70;101946.84;5067964;28;20028;-48
2021/04/04 11:48:32;;;;;;;5.95;2.72;;;;;;;12.41;34.79;101941.91;5071203;28;20039;-46
2021/04/04 11:51:10;;;;;;;6.95;3.03;;;;;;;12.07;35.35;101944.28;5072550;28;20039;-47